Strona główna
METAR-TAF:

METAR-TAF

Lotnisko :

Mannheim, Niemcy

Szerokość geograficzna: 49-28-21N, Długość geograficzna: 008-30-56E, wysokość: 100 m

Aktualna obserwacja pogody

Raport powstał 39 minut temu, godzina 11:20 UTC
Wiatr 3 kt z kierunków zmiennych
Temperatura 12°C
Wilgotność 76%
Ciśnienie 1008 hPa
Widzialność 10 km lub więcej
Rozproszone chmury na wysokości 4400 ft

METAR: EDFM 161120Z VRB03KT 9999 SCT044 12/08 Q1008

czas: 12:59 (11:59 UTC)

Prognoza

Raport powstał 59 minut temu, godzina 11:00 UTC
Prognoza ważna od 16 godzina 12 UTC do 16 godzina 21 UTC
Wiatr 5 kt od południowo-południowy wschód
Widzialność 10 km lub więcej
Brak chmur poniżej 1500 m i brak chmur cumulonimbus

TAF: EDFM 161100Z 1612/1621 16005KT CAVOK

Obserwacja i prognoza pogody dla ponad 4000 lotnisk (raport METAR i TAF).

Dostępne stacje oznaczono żółtymi i czerwonymi punktami na mapie.

Najedź kursorem aby zobaczyć nazwę stacji.

Kliknij aby zobaczyć obserwacje i prognozy pogody.

Aby zmienić mapę: kliknij na zielony przycisk z czarnym krzyżykiem, aby powiększyć; na zielony przycisk z myślnikiem, aby pomniejszyć; na zielone strzałki, aby przejść do map sąsiednich.


METAR-TAF: